sensor_id;sensor_type;location;lat;lon;timestamp;temperature;humidity
9564;DHT22;4820;50.870;4.702;2023-05-27T00:00:04;13.20;99.90
9564;DHT22;4820;50.870;4.702;2023-05-27T00:02:30;13.10;99.90
9564;DHT22;4820;50.870;4.702;2023-05-27T00:04:55;13.00;99.90
9564;DHT22;4820;50.870;4.702;2023-05-27T00:07:21;13.00;99.90
9564;DHT22;4820;50.870;4.702;2023-05-27T00:09:46;13.00;99.90
9564;DHT22;4820;50.870;4.702;2023-05-27T00:12:12;13.00;99.90
9564;DHT22;4820;50.870;4.702;2023-05-27T00:14:38;13.00;99.90
9564;DHT22;4820;50.870;4.702;2023-05-27T00:17:03;13.00;99.90
9564;DHT22;4820;50.870;4.702;2023-05-27T00:19:32;12.90;99.90
9564;DHT22;4820;50.870;4.702;2023-05-27T00:21:59;12.90;99.90
9564;DHT22;4820;50.870;4.702;2023-05-27T00:24:24;12.90;99.90
9564;DHT22;4820;50.870;4.702;2023-05-27T00:26:51;12.80;99.90
9564;DHT22;4820;50.870;4.702;2023-05-27T00:29:18;12.80;99.90
9564;DHT22;4820;50.870;4.702;2023-05-27T00:31:44;12.80;99.90
9564;DHT22;4820;50.870;4.702;2023-05-27T00:34:10;12.70;99.90
9564;DHT22;4820;50.870;4.702;2023-05-27T00:36:36;12.70;99.90
9564;DHT22;4820;50.870;4.702;2023-05-27T00:39:02;12.70;99.90
9564;DHT22;4820;50.870;4.702;2023-05-27T00:41:28;12.70;99.90
9564;DHT22;4820;50.870;4.702;2023-05-27T00:43:55;12.60;99.90
9564;DHT22;4820;50.870;4.702;2023-05-27T00:46:21;12.60;99.90
9564;DHT22;4820;50.870;4.702;2023-05-27T00:48:48;12.60;99.90
9564;DHT22;4820;50.870;4.702;2023-05-27T00:51:14;12.50;99.90
9564;DHT22;4820;50.870;4.702;2023-05-27T00:53:41;12.50;99.90
9564;DHT22;4820;50.870;4.702;2023-05-27T00:56:08;12.50;99.90
9564;DHT22;4820;50.870;4.702;2023-05-27T00:58:37;12.50;99.90
9564;DHT22;4820;50.870;4.702;2023-05-27T01:01:03;12.50;99.90
9564;DHT22;4820;50.870;4.702;2023-05-27T01:03:30;12.50;99.90
9564;DHT22;4820;50.870;4.702;2023-05-27T01:06:25;12.40;99.90
9564;DHT22;4820;50.870;4.702;2023-05-27T01:14:49;12.30;99.90
9564;DHT22;4820;50.870;4.702;2023-05-27T01:17:17;12.30;99.90
9564;DHT22;4820;50.870;4.702;2023-05-27T01:19:45;12.20;99.90
9564;DHT22;4820;50.870;4.702;2023-05-27T01:22:14;12.20;99.90
9564;DHT22;4820;50.870;4.702;2023-05-27T01:24:42;12.20;99.90
9564;DHT22;4820;50.870;4.702;2023-05-27T01:27:08;12.20;99.90
9564;DHT22;4820;50.870;4.702;2023-05-27T01:29:35;12.10;99.90
9564;DHT22;4820;50.870;4.702;2023-05-27T01:32:17;12.10;99.90
9564;DHT22;4820;50.870;4.702;2023-05-27T01:35:04;12.10;99.90
9564;DHT22;4820;50.870;4.702;2023-05-27T01:37:37;12.10;99.90
9564;DHT22;4820;50.870;4.702;2023-05-27T01:40:07;12.10;99.90
9564;DHT22;4820;50.870;4.702;2023-05-27T01:42:35;12.00;99.90
9564;DHT22;4820;50.870;4.702;2023-05-27T01:45:03;12.00;99.90
9564;DHT22;4820;50.870;4.702;2023-05-27T01:47:31;12.00;99.90
9564;DHT22;4820;50.870;4.702;2023-05-27T01:49:57;11.90;99.90
9564;DHT22;4820;50.870;4.702;2023-05-27T01:52:23;11.90;99.90
9564;DHT22;4820;50.870;4.702;2023-05-27T01:54:48;11.90;99.90
9564;DHT22;4820;50.870;4.702;2023-05-27T01:57:14;11.90;99.90
9564;DHT22;4820;50.870;4.702;2023-05-27T01:59:41;11.80;99.90
9564;DHT22;4820;50.870;4.702;2023-05-27T02:02:09;11.80;99.90
9564;DHT22;4820;50.870;4.702;2023-05-27T02:04:35;11.80;99.90
9564;DHT22;4820;50.870;4.702;2023-05-27T02:07:00;11.80;99.90
9564;DHT22;4820;50.870;4.702;2023-05-27T02:09:26;11.70;99.90
9564;DHT22;4820;50.870;4.702;2023-05-27T02:11:53;11.70;99.90
9564;DHT22;4820;50.870;4.702;2023-05-27T02:14:18;11.70;99.90
9564;DHT22;4820;50.870;4.702;2023-05-27T02:16:44;11.60;99.90
9564;DHT22;4820;50.870;4.702;2023-05-27T02:19:10;11.60;99.90
9564;DHT22;4820;50.870;4.702;2023-05-27T02:21:36;11.60;99.90
9564;DHT22;4820;50.870;4.702;2023-05-27T02:24:04;11.60;99.90
9564;DHT22;4820;50.870;4.702;2023-05-27T02:26:30;11.50;99.90
9564;DHT22;4820;50.870;4.702;2023-05-27T02:28:56;11.50;99.90
9564;DHT22;4820;50.870;4.702;2023-05-27T02:31:21;11.50;99.90
9564;DHT22;4820;50.870;4.702;2023-05-27T02:33:47;11.50;99.90
9564;DHT22;4820;50.870;4.702;2023-05-27T02:36:13;11.50;99.90
9564;DHT22;4820;50.870;4.702;2023-05-27T02:38:39;11.50;99.90
9564;DHT22;4820;50.870;4.702;2023-05-27T02:41:04;11.40;99.90
9564;DHT22;4820;50.870;4.702;2023-05-27T02:43:30;11.40;99.90
9564;DHT22;4820;50.870;4.702;2023-05-27T02:45:55;11.40;99.90
9564;DHT22;4820;50.870;4.702;2023-05-27T02:48:21;11.30;99.90
9564;DHT22;4820;50.870;4.702;2023-05-27T02:50:47;11.30;99.90
9564;DHT22;4820;50.870;4.702;2023-05-27T02:53:13;11.30;99.90
9564;DHT22;4820;50.870;4.702;2023-05-27T02:55:40;11.20;99.90
9564;DHT22;4820;50.870;4.702;2023-05-27T02:58:05;11.20;99.90
9564;DHT22;4820;50.870;4.702;2023-05-27T03:00:32;11.20;99.90
9564;DHT22;4820;50.870;4.702;2023-05-27T03:02:58;11.20;99.90
9564;DHT22;4820;50.870;4.702;2023-05-27T03:05:24;11.10;99.90
9564;DHT22;4820;50.870;4.702;2023-05-27T03:07:50;11.10;99.90
9564;DHT22;4820;50.870;4.702;2023-05-27T03:10:15;11.10;99.90
9564;DHT22;4820;50.870;4.702;2023-05-27T03:12:42;11.10;99.90
9564;DHT22;4820;50.870;4.702;2023-05-27T03:15:08;11.00;99.90
9564;DHT22;4820;50.870;4.702;2023-05-27T03:17:36;11.00;99.90
9564;DHT22;4820;50.870;4.702;2023-05-27T03:20:02;10.90;99.90
9564;DHT22;4820;50.870;4.702;2023-05-27T03:22:29;10.90;99.90
9564;DHT22;4820;50.870;4.702;2023-05-27T03:24:55;10.90;99.90
9564;DHT22;4820;50.870;4.702;2023-05-27T03:27:20;10.90;99.90
9564;DHT22;4820;50.870;4.702;2023-05-27T03:29:47;10.90;99.90
9564;DHT22;4820;50.870;4.702;2023-05-27T03:32:12;10.90;99.90
9564;DHT22;4820;50.870;4.702;2023-05-27T03:34:38;10.80;99.90
9564;DHT22;4820;50.870;4.702;2023-05-27T03:37:04;10.80;99.90
9564;DHT22;4820;50.870;4.702;2023-05-27T03:39:30;10.80;99.90
9564;DHT22;4820;50.870;4.702;2023-05-27T03:41:55;10.80;99.90
9564;DHT22;4820;50.870;4.702;2023-05-27T03:44:21;10.80;99.90
9564;DHT22;4820;50.870;4.702;2023-05-27T03:46:48;10.70;99.90
9564;DHT22;4820;50.870;4.702;2023-05-27T03:49:14;10.70;99.90
9564;DHT22;4820;50.870;4.702;2023-05-27T03:51:39;10.70;99.90
9564;DHT22;4820;50.870;4.702;2023-05-27T03:54:05;10.70;99.90
9564;DHT22;4820;50.870;4.702;2023-05-27T03:56:31;10.70;99.90
9564;DHT22;4820;50.870;4.702;2023-05-27T03:58:56;10.70;99.90
9564;DHT22;4820;50.870;4.702;2023-05-27T04:01:22;10.70;99.90
9564;DHT22;4820;50.870;4.702;2023-05-27T04:03:48;10.60;99.90
9564;DHT22;4820;50.870;4.702;2023-05-27T04:06:14;10.60;99.90
9564;DHT22;4820;50.870;4.702;2023-05-27T04:08:40;10.60;99.90
9564;DHT22;4820;50.870;4.702;2023-05-27T04:13:35;10.60;99.90
9564;DHT22;4820;50.870;4.702;2023-05-27T04:16:01;10.60;99.90
9564;DHT22;4820;50.870;4.702;2023-05-27T04:18:27;10.50;99.90
9564;DHT22;4820;50.870;4.702;2023-05-27T04:20:52;10.60;99.90
9564;DHT22;4820;50.870;4.702;2023-05-27T04:23:20;10.60;99.90
9564;DHT22;4820;50.870;4.702;2023-05-27T04:25:46;10.50;99.90
9564;DHT22;4820;50.870;4.702;2023-05-27T04:28:15;10.50;99.90
9564;DHT22;4820;50.870;4.702;2023-05-27T04:30:41;10.50;99.90
9564;DHT22;4820;50.870;4.702;2023-05-27T04:33:10;10.50;99.90
9564;DHT22;4820;50.870;4.702;2023-05-27T04:35:36;10.50;99.90
9564;DHT22;4820;50.870;4.702;2023-05-27T04:38:02;10.50;99.90
9564;DHT22;4820;50.870;4.702;2023-05-27T04:40:28;10.60;99.90
9564;DHT22;4820;50.870;4.702;2023-05-27T04:42:57;10.50;99.90
9564;DHT22;4820;50.870;4.702;2023-05-27T04:45:23;10.50;99.90
9564;DHT22;4820;50.870;4.702;2023-05-27T04:47:49;10.50;99.90
9564;DHT22;4820;50.870;4.702;2023-05-27T04:50:15;10.50;99.90
9564;DHT22;4820;50.870;4.702;2023-05-27T04:52:40;10.50;99.90
9564;DHT22;4820;50.870;4.702;2023-05-27T04:55:08;10.60;99.90
9564;DHT22;4820;50.870;4.702;2023-05-27T04:57:35;10.60;99.90
9564;DHT22;4820;50.870;4.702;2023-05-27T05:00:03;10.60;99.90
9564;DHT22;4820;50.870;4.702;2023-05-27T05:02:30;10.60;99.90
9564;DHT22;4820;50.870;4.702;2023-05-27T05:07:32;10.70;99.90
9564;DHT22;4820;50.870;4.702;2023-05-27T05:09:59;10.70;99.90
9564;DHT22;4820;50.870;4.702;2023-05-27T05:12:26;10.70;99.90
9564;DHT22;4820;50.870;4.702;2023-05-27T05:14:52;10.70;99.90
9564;DHT22;4820;50.870;4.702;2023-05-27T05:17:18;10.80;99.90
9564;DHT22;4820;50.870;4.702;2023-05-27T05:19:44;10.80;99.90
9564;DHT22;4820;50.870;4.702;2023-05-27T05:22:11;10.90;99.90
9564;DHT22;4820;50.870;4.702;2023-05-27T05:24:46;10.90;99.90
9564;DHT22;4820;50.870;4.702;2023-05-27T05:27:12;11.00;99.90
9564;DHT22;4820;50.870;4.702;2023-05-27T05:29:39;11.00;99.90
9564;DHT22;4820;50.870;4.702;2023-05-27T05:32:06;10.90;99.90
9564;DHT22;4820;50.870;4.702;2023-05-27T05:34:32;11.00;99.90
9564;DHT22;4820;50.870;4.702;2023-05-27T05:36:57;11.00;99.90
9564;DHT22;4820;50.870;4.702;2023-05-27T05:39:23;11.00;99.90
9564;DHT22;4820;50.870;4.702;2023-05-27T05:41:50;11.10;99.90
9564;DHT22;4820;50.870;4.702;2023-05-27T05:44:17;11.20;99.90
9564;DHT22;4820;50.870;4.702;2023-05-27T05:46:43;11.20;99.90
9564;DHT22;4820;50.870;4.702;2023-05-27T05:49:10;11.20;99.90
9564;DHT22;4820;50.870;4.702;2023-05-27T05:51:35;11.20;99.90
9564;DHT22;4820;50.870;4.702;2023-05-27T05:54:01;11.40;99.90
9564;DHT22;4820;50.870;4.702;2023-05-27T05:56:27;11.40;99.90
9564;DHT22;4820;50.870;4.702;2023-05-27T05:58:53;11.50;99.90
9564;DHT22;4820;50.870;4.702;2023-05-27T06:01:19;11.50;99.90
9564;DHT22;4820;50.870;4.702;2023-05-27T06:03:45;11.50;99.90
9564;DHT22;4820;50.870;4.702;2023-05-27T06:06:11;11.60;99.90
9564;DHT22;4820;50.870;4.702;2023-05-27T06:08:39;11.60;99.90
9564;DHT22;4820;50.870;4.702;2023-05-27T06:11:04;11.60;99.90
9564;DHT22;4820;50.870;4.702;2023-05-27T06:13:30;11.70;99.90
9564;DHT22;4820;50.870;4.702;2023-05-27T06:15:56;11.70;99.90
9564;DHT22;4820;50.870;4.702;2023-05-27T06:18:21;11.80;99.90
9564;DHT22;4820;50.870;4.702;2023-05-27T06:20:47;11.80;99.90
9564;DHT22;4820;50.870;4.702;2023-05-27T06:23:14;11.80;99.90
9564;DHT22;4820;50.870;4.702;2023-05-27T06:25:41;11.90;99.90
9564;DHT22;4820;50.870;4.702;2023-05-27T06:28:07;12.00;99.90
9564;DHT22;4820;50.870;4.702;2023-05-27T06:30:33;12.00;99.90
9564;DHT22;4820;50.870;4.702;2023-05-27T06:32:59;12.10;99.90
9564;DHT22;4820;50.870;4.702;2023-05-27T06:35:25;12.10;99.90
9564;DHT22;4820;50.870;4.702;2023-05-27T06:37:51;12.10;99.90
9564;DHT22;4820;50.870;4.702;2023-05-27T06:40:16;12.20;99.90
9564;DHT22;4820;50.870;4.702;2023-05-27T06:42:43;12.20;99.90
9564;DHT22;4820;50.870;4.702;2023-05-27T06:45:10;12.30;99.90
9564;DHT22;4820;50.870;4.702;2023-05-27T06:47:36;12.30;99.90
9564;DHT22;4820;50.870;4.702;2023-05-27T06:50:02;12.40;99.90
9564;DHT22;4820;50.870;4.702;2023-05-27T06:52:27;12.50;99.90
9564;DHT22;4820;50.870;4.702;2023-05-27T06:54:53;12.50;99.90
9564;DHT22;4820;50.870;4.702;2023-05-27T06:57:19;12.60;99.90
9564;DHT22;4820;50.870;4.702;2023-05-27T06:59:45;12.70;99.90
9564;DHT22;4820;50.870;4.702;2023-05-27T07:02:11;12.80;99.90
9564;DHT22;4820;50.870;4.702;2023-05-27T07:04:38;12.80;99.90
9564;DHT22;4820;50.870;4.702;2023-05-27T07:07:05;12.90;99.90
9564;DHT22;4820;50.870;4.702;2023-05-27T07:09:31;13.10;99.90
9564;DHT22;4820;50.870;4.702;2023-05-27T07:11:56;13.10;99.90
9564;DHT22;4820;50.870;4.702;2023-05-27T07:14:22;13.20;99.90
9564;DHT22;4820;50.870;4.702;2023-05-27T07:16:48;13.20;99.90
9564;DHT22;4820;50.870;4.702;2023-05-27T07:19:13;13.30;99.90
9564;DHT22;4820;50.870;4.702;2023-05-27T07:21:39;13.40;99.90
9564;DHT22;4820;50.870;4.702;2023-05-27T07:24:05;13.40;99.90
9564;DHT22;4820;50.870;4.702;2023-05-27T07:26:31;13.50;99.90
9564;DHT22;4820;50.870;4.702;2023-05-27T07:28:58;13.50;99.90
9564;DHT22;4820;50.870;4.702;2023-05-27T07:31:25;13.60;99.90
9564;DHT22;4820;50.870;4.702;2023-05-27T07:33:51;13.80;99.90
9564;DHT22;4820;50.870;4.702;2023-05-27T07:36:17;13.90;99.90
9564;DHT22;4820;50.870;4.702;2023-05-27T07:38:43;14.10;99.90
9564;DHT22;4820;50.870;4.702;2023-05-27T07:41:08;14.20;99.90
9564;DHT22;4820;50.870;4.702;2023-05-27T07:43:34;14.30;99.90
9564;DHT22;4820;50.870;4.702;2023-05-27T07:46:00;14.40;99.90
9564;DHT22;4820;50.870;4.702;2023-05-27T07:48:27;14.50;99.90
9564;DHT22;4820;50.870;4.702;2023-05-27T07:50:53;14.60;99.90
9564;DHT22;4820;50.870;4.702;2023-05-27T07:53:19;14.60;99.90
9564;DHT22;4820;50.870;4.702;2023-05-27T07:55:45;14.70;99.90
9564;DHT22;4820;50.870;4.702;2023-05-27T07:58:11;14.70;99.90
9564;DHT22;4820;50.870;4.702;2023-05-27T08:00:37;14.70;99.90
9564;DHT22;4820;50.870;4.702;2023-05-27T08:03:03;14.70;99.90
9564;DHT22;4820;50.870;4.702;2023-05-27T08:05:28;14.70;99.90
9564;DHT22;4820;50.870;4.702;2023-05-27T08:07:55;14.80;99.90
9564;DHT22;4820;50.870;4.702;2023-05-27T08:10:28;14.80;99.90
9564;DHT22;4820;50.870;4.702;2023-05-27T08:12:54;14.90;99.90
9564;DHT22;4820;50.870;4.702;2023-05-27T08:15:20;15.00;99.90
9564;DHT22;4820;50.870;4.702;2023-05-27T08:17:46;15.00;99.90
9564;DHT22;4820;50.870;4.702;2023-05-27T08:20:12;15.10;99.90
9564;DHT22;4820;50.870;4.702;2023-05-27T08:22:38;15.10;99.90
9564;DHT22;4820;50.870;4.702;2023-05-27T08:25:04;15.20;99.90
9564;DHT22;4820;50.870;4.702;2023-05-27T08:30:11;15.40;99.90
9564;DHT22;4820;50.870;4.702;2023-05-27T08:32:39;15.50;99.90
9564;DHT22;4820;50.870;4.702;2023-05-27T08:35:07;15.60;99.90
9564;DHT22;4820;50.870;4.702;2023-05-27T08:37:33;15.70;99.90
9564;DHT22;4820;50.870;4.702;2023-05-27T08:39:59;15.90;99.90
9564;DHT22;4820;50.870;4.702;2023-05-27T08:42:25;16.00;99.90
9564;DHT22;4820;50.870;4.702;2023-05-27T08:44:51;16.00;99.90
9564;DHT22;4820;50.870;4.702;2023-05-27T08:47:17;16.10;99.90
9564;DHT22;4820;50.870;4.702;2023-05-27T08:49:43;16.20;99.90
9564;DHT22;4820;50.870;4.702;2023-05-27T08:52:15;16.30;99.90
9564;DHT22;4820;50.870;4.702;2023-05-27T08:54:42;16.30;99.90
9564;DHT22;4820;50.870;4.702;2023-05-27T08:57:09;16.40;99.90
9564;DHT22;4820;50.870;4.702;2023-05-27T08:59:39;16.40;99.90
9564;DHT22;4820;50.870;4.702;2023-05-27T09:02:11;16.50;99.90
9564;DHT22;4820;50.870;4.702;2023-05-27T09:04:38;16.70;99.90
9564;DHT22;4820;50.870;4.702;2023-05-27T09:07:05;16.70;99.90
9564;DHT22;4820;50.870;4.702;2023-05-27T09:09:31;16.80;99.90
9564;DHT22;4820;50.870;4.702;2023-05-27T09:12:02;16.90;99.90
9564;DHT22;4820;50.870;4.702;2023-05-27T09:14:29;16.90;99.90
9564;DHT22;4820;50.870;4.702;2023-05-27T09:16:55;16.90;99.90
9564;DHT22;4820;50.870;4.702;2023-05-27T09:19:22;16.90;99.90
9564;DHT22;4820;50.870;4.702;2023-05-27T09:21:53;16.90;99.90
9564;DHT22;4820;50.870;4.702;2023-05-27T09:24:20;16.90;99.90
9564;DHT22;4820;50.870;4.702;2023-05-27T09:26:50;17.00;99.90
9564;DHT22;4820;50.870;4.702;2023-05-27T09:29:18;17.10;99.90
9564;DHT22;4820;50.870;4.702;2023-05-27T09:31:44;17.10;99.90
9564;DHT22;4820;50.870;4.702;2023-05-27T09:34:16;17.20;99.90
9564;DHT22;4820;50.870;4.702;2023-05-27T09:36:48;17.20;99.90
9564;DHT22;4820;50.870;4.702;2023-05-27T09:39:16;17.30;99.90
9564;DHT22;4820;50.870;4.702;2023-05-27T09:41:42;17.40;99.90
9564;DHT22;4820;50.870;4.702;2023-05-27T09:44:09;17.50;99.90
9564;DHT22;4820;50.870;4.702;2023-05-27T09:46:36;17.60;99.90
9564;DHT22;4820;50.870;4.702;2023-05-27T09:49:03;17.60;99.90
9564;DHT22;4820;50.870;4.702;2023-05-27T09:51:32;17.70;99.90
9564;DHT22;4820;50.870;4.702;2023-05-27T09:53:59;17.80;99.90
9564;DHT22;4820;50.870;4.702;2023-05-27T09:56:29;18.00;99.90
9564;DHT22;4820;50.870;4.702;2023-05-27T09:58:55;18.10;99.90
9564;DHT22;4820;50.870;4.702;2023-05-27T10:01:26;18.20;99.90
9564;DHT22;4820;50.870;4.702;2023-05-27T10:03:54;18.20;99.90
9564;DHT22;4820;50.870;4.702;2023-05-27T10:06:23;18.20;99.90
9564;DHT22;4820;50.870;4.702;2023-05-27T10:08:55;18.20;99.90
9564;DHT22;4820;50.870;4.702;2023-05-27T10:11:21;18.30;99.90
9564;DHT22;4820;50.870;4.702;2023-05-27T10:13:48;18.30;99.90
9564;DHT22;4820;50.870;4.702;2023-05-27T10:16:21;18.30;99.90
9564;DHT22;4820;50.870;4.702;2023-05-27T10:18:47;18.40;99.90
9564;DHT22;4820;50.870;4.702;2023-05-27T10:21:19;18.50;99.90
9564;DHT22;4820;50.870;4.702;2023-05-27T10:23:59;18.60;99.90
9564;DHT22;4820;50.870;4.702;2023-05-27T10:26:36;18.60;99.90
9564;DHT22;4820;50.870;4.702;2023-05-27T10:29:17;18.70;99.90
9564;DHT22;4820;50.870;4.702;2023-05-27T10:31:50;18.70;99.90
9564;DHT22;4820;50.870;4.702;2023-05-27T10:34:16;18.80;99.90
9564;DHT22;4820;50.870;4.702;2023-05-27T10:36:46;18.80;99.90
9564;DHT22;4820;50.870;4.702;2023-05-27T10:39:13;18.90;99.90
9564;DHT22;4820;50.870;4.702;2023-05-27T10:41:43;18.90;99.90
9564;DHT22;4820;50.870;4.702;2023-05-27T10:44:10;19.00;99.90
9564;DHT22;4820;50.870;4.702;2023-05-27T10:46:43;19.10;99.90
9564;DHT22;4820;50.870;4.702;2023-05-27T10:49:25;19.20;99.90
9564;DHT22;4820;50.870;4.702;2023-05-27T10:51:53;19.20;99.90
9564;DHT22;4820;50.870;4.702;2023-05-27T10:54:19;19.30;99.90
9564;DHT22;4820;50.870;4.702;2023-05-27T10:56:52;19.40;99.90
9564;DHT22;4820;50.870;4.702;2023-05-27T10:59:22;19.40;99.90
9564;DHT22;4820;50.870;4.702;2023-05-27T11:01:52;19.60;99.90
9564;DHT22;4820;50.870;4.702;2023-05-27T11:04:22;19.60;99.90
9564;DHT22;4820;50.870;4.702;2023-05-27T11:07:00;19.70;99.90
9564;DHT22;4820;50.870;4.702;2023-05-27T11:09:26;19.80;99.90
9564;DHT22;4820;50.870;4.702;2023-05-27T11:11:55;19.80;98.80
9564;DHT22;4820;50.870;4.702;2023-05-27T11:14:20;20.00;98.60
9564;DHT22;4820;50.870;4.702;2023-05-27T11:16:50;20.10;99.50
9564;DHT22;4820;50.870;4.702;2023-05-27T11:19:20;20.20;99.40
9564;DHT22;4820;50.870;4.702;2023-05-27T11:21:49;20.20;98.40
9564;DHT22;4820;50.870;4.702;2023-05-27T11:24:19;20.20;98.90
9564;DHT22;4820;50.870;4.702;2023-05-27T11:26:46;20.20;98.60
9564;DHT22;4820;50.870;4.702;2023-05-27T11:29:15;20.30;98.60
9564;DHT22;4820;50.870;4.702;2023-05-27T11:31:45;20.40;98.30
9564;DHT22;4820;50.870;4.702;2023-05-27T11:34:13;20.50;97.70
9564;DHT22;4820;50.870;4.702;2023-05-27T11:36:44;20.60;97.10
9564;DHT22;4820;50.870;4.702;2023-05-27T11:39:14;20.50;96.00
9564;DHT22;4820;50.870;4.702;2023-05-27T11:41:53;20.50;97.00
9564;DHT22;4820;50.870;4.702;2023-05-27T11:44:23;20.60;97.00
9564;DHT22;4820;50.870;4.702;2023-05-27T11:46:51;20.60;96.20
9564;DHT22;4820;50.870;4.702;2023-05-27T11:49:18;20.60;96.70
9564;DHT22;4820;50.870;4.702;2023-05-27T11:51:49;20.80;96.70
9564;DHT22;4820;50.870;4.702;2023-05-27T11:54:20;20.90;96.40
9564;DHT22;4820;50.870;4.702;2023-05-27T11:56:48;20.90;95.60
9564;DHT22;4820;50.870;4.702;2023-05-27T11:59:14;20.90;94.70
9564;DHT22;4820;50.870;4.702;2023-05-27T12:01:41;20.80;94.90
9564;DHT22;4820;50.870;4.702;2023-05-27T12:04:07;20.80;95.00
9564;DHT22;4820;50.870;4.702;2023-05-27T12:06:33;20.90;95.00
9564;DHT22;4820;50.870;4.702;2023-05-27T12:08:59;20.90;95.30
9564;DHT22;4820;50.870;4.702;2023-05-27T12:11:25;21.00;95.70
9564;DHT22;4820;50.870;4.702;2023-05-27T12:13:53;21.00;94.90
9564;DHT22;4820;50.870;4.702;2023-05-27T12:16:19;21.10;94.00
9564;DHT22;4820;50.870;4.702;2023-05-27T12:18:44;21.10;93.60
9564;DHT22;4820;50.870;4.702;2023-05-27T12:21:11;21.20;95.20
9564;DHT22;4820;50.870;4.702;2023-05-27T12:23:36;21.20;95.80
9564;DHT22;4820;50.870;4.702;2023-05-27T12:26:02;21.30;95.70
9564;DHT22;4820;50.870;4.702;2023-05-27T12:28:28;21.30;95.20
9564;DHT22;4820;50.870;4.702;2023-05-27T12:30:53;21.20;95.30
9564;DHT22;4820;50.870;4.702;2023-05-27T12:33:19;21.30;95.10
9564;DHT22;4820;50.870;4.702;2023-05-27T12:35:45;21.40;93.10
9564;DHT22;4820;50.870;4.702;2023-05-27T12:38:10;21.40;93.30
9564;DHT22;4820;50.870;4.702;2023-05-27T12:40:36;21.40;93.30
9564;DHT22;4820;50.870;4.702;2023-05-27T12:43:02;21.40;93.60
9564;DHT22;4820;50.870;4.702;2023-05-27T12:45:31;21.40;93.30
9564;DHT22;4820;50.870;4.702;2023-05-27T12:47:58;21.40;93.40
9564;DHT22;4820;50.870;4.702;2023-05-27T12:50:24;21.40;93.60
9564;DHT22;4820;50.870;4.702;2023-05-27T12:52:50;21.50;93.90
9564;DHT22;4820;50.870;4.702;2023-05-27T12:55:18;21.50;93.70
9564;DHT22;4820;50.870;4.702;2023-05-27T12:57:45;21.50;93.60
9564;DHT22;4820;50.870;4.702;2023-05-27T13:00:12;21.50;93.30
9564;DHT22;4820;50.870;4.702;2023-05-27T13:02:38;21.50;92.60
9564;DHT22;4820;50.870;4.702;2023-05-27T13:05:05;21.50;92.10
9564;DHT22;4820;50.870;4.702;2023-05-27T13:07:31;21.60;93.10
9564;DHT22;4820;50.870;4.702;2023-05-27T13:10:00;21.60;93.40
9564;DHT22;4820;50.870;4.702;2023-05-27T13:12:27;21.60;93.40
9564;DHT22;4820;50.870;4.702;2023-05-27T13:14:53;21.80;93.50
9564;DHT22;4820;50.870;4.702;2023-05-27T13:17:18;21.80;92.70
9564;DHT22;4820;50.870;4.702;2023-05-27T13:19:44;21.80;92.80
9564;DHT22;4820;50.870;4.702;2023-05-27T13:22:10;21.80;92.80
9564;DHT22;4820;50.870;4.702;2023-05-27T13:24:36;21.80;93.00
9564;DHT22;4820;50.870;4.702;2023-05-27T13:27:02;21.90;92.60
9564;DHT22;4820;50.870;4.702;2023-05-27T13:29:29;22.00;91.50
9564;DHT22;4820;50.870;4.702;2023-05-27T13:31:55;22.00;90.00
9564;DHT22;4820;50.870;4.702;2023-05-27T13:34:21;22.00;88.20
9564;DHT22;4820;50.870;4.702;2023-05-27T13:36:46;22.00;89.30
9564;DHT22;4820;50.870;4.702;2023-05-27T13:39:13;21.90;89.20
9564;DHT22;4820;50.870;4.702;2023-05-27T13:41:39;22.00;88.40
9564;DHT22;4820;50.870;4.702;2023-05-27T13:44:04;22.00;89.30
9564;DHT22;4820;50.870;4.702;2023-05-27T13:46:30;22.10;88.90
9564;DHT22;4820;50.870;4.702;2023-05-27T13:48:56;22.10;90.20
9564;DHT22;4820;50.870;4.702;2023-05-27T13:51:21;22.10;90.20
9564;DHT22;4820;50.870;4.702;2023-05-27T13:53:47;22.10;90.40
9564;DHT22;4820;50.870;4.702;2023-05-27T13:56:14;22.00;91.20
9564;DHT22;4820;50.870;4.702;2023-05-27T13:58:39;22.10;91.40
9564;DHT22;4820;50.870;4.702;2023-05-27T14:01:05;22.10;91.30
9564;DHT22;4820;50.870;4.702;2023-05-27T14:03:32;22.20;91.00
9564;DHT22;4820;50.870;4.702;2023-05-27T14:05:58;22.20;88.30
9564;DHT22;4820;50.870;4.702;2023-05-27T14:08:24;22.20;88.20
9564;DHT22;4820;50.870;4.702;2023-05-27T14:10:50;22.20;87.90
9564;DHT22;4820;50.870;4.702;2023-05-27T14:13:15;22.30;88.30
9564;DHT22;4820;50.870;4.702;2023-05-27T14:15:41;22.30;89.10
9564;DHT22;4820;50.870;4.702;2023-05-27T14:18:07;22.40;88.30
9564;DHT22;4820;50.870;4.702;2023-05-27T14:20:33;22.40;87.00
9564;DHT22;4820;50.870;4.702;2023-05-27T14:22:59;22.40;86.70
9564;DHT22;4820;50.870;4.702;2023-05-27T14:25:28;22.50;87.40
9564;DHT22;4820;50.870;4.702;2023-05-27T14:27:55;22.50;86.90
9564;DHT22;4820;50.870;4.702;2023-05-27T14:30:22;22.60;87.00
9564;DHT22;4820;50.870;4.702;2023-05-27T14:32:50;22.70;87.60
9564;DHT22;4820;50.870;4.702;2023-05-27T14:35:15;22.80;87.90
9564;DHT22;4820;50.870;4.702;2023-05-27T14:37:41;22.80;85.50
9564;DHT22;4820;50.870;4.702;2023-05-27T14:40:07;22.80;88.00
9564;DHT22;4820;50.870;4.702;2023-05-27T14:42:33;22.80;86.70
9564;DHT22;4820;50.870;4.702;2023-05-27T14:44:58;22.80;84.90
9564;DHT22;4820;50.870;4.702;2023-05-27T14:47:24;22.80;83.60
9564;DHT22;4820;50.870;4.702;2023-05-27T14:49:49;22.80;83.50
9564;DHT22;4820;50.870;4.702;2023-05-27T14:52:15;22.80;84.00
9564;DHT22;4820;50.870;4.702;2023-05-27T14:54:42;22.70;84.00
9564;DHT22;4820;50.870;4.702;2023-05-27T14:57:08;22.70;84.00
9564;DHT22;4820;50.870;4.702;2023-05-27T14:59:34;22.80;84.70
9564;DHT22;4820;50.870;4.702;2023-05-27T15:02:00;22.80;86.20
9564;DHT22;4820;50.870;4.702;2023-05-27T15:04:25;22.90;86.90
9564;DHT22;4820;50.870;4.702;2023-05-27T15:06:51;22.90;86.40
9564;DHT22;4820;50.870;4.702;2023-05-27T15:09:17;23.00;86.90
9564;DHT22;4820;50.870;4.702;2023-05-27T15:11:42;23.00;86.90
9564;DHT22;4820;50.870;4.702;2023-05-27T15:14:08;23.10;87.10
9564;DHT22;4820;50.870;4.702;2023-05-27T15:16:34;23.20;87.40
9564;DHT22;4820;50.870;4.702;2023-05-27T15:19:01;23.20;84.70
9564;DHT22;4820;50.870;4.702;2023-05-27T15:21:26;23.20;83.60
9564;DHT22;4820;50.870;4.702;2023-05-27T15:23:52;23.20;83.50
9564;DHT22;4820;50.870;4.702;2023-05-27T15:26:18;23.20;83.40
9564;DHT22;4820;50.870;4.702;2023-05-27T15:28:44;23.20;84.30
9564;DHT22;4820;50.870;4.702;2023-05-27T15:31:10;23.20;85.00
9564;DHT22;4820;50.870;4.702;2023-05-27T15:33:35;23.20;85.20
9564;DHT22;4820;50.870;4.702;2023-05-27T15:36:02;23.30;85.20
9564;DHT22;4820;50.870;4.702;2023-05-27T15:38:29;23.30;84.80
9564;DHT22;4820;50.870;4.702;2023-05-27T15:40:54;23.40;85.10
9564;DHT22;4820;50.870;4.702;2023-05-27T15:43:20;23.50;83.80
9564;DHT22;4820;50.870;4.702;2023-05-27T15:45:46;23.60;82.50
9564;DHT22;4820;50.870;4.702;2023-05-27T15:48:12;23.70;82.80
9564;DHT22;4820;50.870;4.702;2023-05-27T15:50:39;23.70;83.70
9564;DHT22;4820;50.870;4.702;2023-05-27T15:53:06;23.60;83.80
9564;DHT22;4820;50.870;4.702;2023-05-27T15:55:33;23.70;83.80
9564;DHT22;4820;50.870;4.702;2023-05-27T15:57:58;23.80;83.60
9564;DHT22;4820;50.870;4.702;2023-05-27T16:00:24;23.90;82.50
9564;DHT22;4820;50.870;4.702;2023-05-27T16:02:50;24.00;82.20
9564;DHT22;4820;50.870;4.702;2023-05-27T16:05:15;24.30;81.90
9564;DHT22;4820;50.870;4.702;2023-05-27T16:07:41;24.40;81.50
9564;DHT22;4820;50.870;4.702;2023-05-27T16:10:08;24.60;80.00
9564;DHT22;4820;50.870;4.702;2023-05-27T16:12:34;24.80;79.70